Time;durP1;ratioP1;P1;durP2;ratioP2;P2;SDS_P1;SDS_P2;PMS_P1;PMS_P2;Temp;Humidity;BMP_temperature;BMP_pressure;BME280_temperature;BME280_humidity;BME280_pressure;Samples;Min_cycle;Max_cycle;Signal;HPM_P1;HPM_P2
2021/09/03 00:02:23;;;;;;;7.10;5.93;;;;;;;;;;5046572;28;20033;-82
2021/09/03 00:04:50;;;;;;;10.77;6.93;;;;;;;;;;5032393;28;20029;-83
2021/09/03 00:07:16;;;;;;;9.57;6.80;;;;;;;;;;5034977;28;20030;-82
2021/09/03 00:09:42;;;;;;;8.43;7.20;;;;;;;;;;5032994;28;20030;-83
2021/09/03 00:12:08;;;;;;;9.02;7.32;;;;;;;;;;5034510;28;20049;-81
2021/09/03 00:14:35;;;;;;;8.18;6.75;;;;;;;;;;5034131;28;20033;-83
2021/09/03 00:17:01;;;;;;;8.40;6.85;;;;;;;;;;5035431;28;20085;-83
2021/09/03 00:19:27;;;;;;;7.25;6.05;;;;;;;;;;5035116;28;20017;-84
2021/09/03 00:21:53;;;;;;;8.70;6.45;;;;;;;;;;5034746;28;20034;-83
2021/09/03 00:24:20;;;;;;;7.63;5.63;;;;;;;;;;5032498;28;20057;-83
2021/09/03 00:26:46;;;;;;;7.13;6.40;;;;;;;;;;5034184;28;20117;-82
2021/09/03 00:29:12;;;;;;;7.68;6.00;;;;;;;;;;5034311;28;20017;-82
2021/09/03 00:31:38;;;;;;;8.43;6.18;;;;;;;;;;5049791;28;20090;-83
2021/09/03 00:34:04;;;;;;;7.95;6.10;;;;;;;;;;5047073;28;20022;-83
2021/09/03 00:36:30;;;;;;;7.68;6.28;;;;;;;;;;5029880;28;20029;-84
2021/09/03 00:38:56;;;;;;;7.60;6.65;;;;;;;;;;5029281;28;20025;-82
2021/09/03 00:41:23;;;;;;;7.95;6.80;;;;;;;;;;5031670;28;20081;-83
2021/09/03 00:43:49;;;;;;;5.82;5.22;;;;;;;;;;5035293;28;20080;-83
2021/09/03 00:46:15;;;;;;;8.52;6.40;;;;;;;;;;5032511;28;20152;-83
2021/09/03 00:48:41;;;;;;;7.97;6.55;;;;;;;;;;5030975;28;20045;-83
2021/09/03 00:51:07;;;;;;;7.72;6.45;;;;;;;;;;5030951;28;20387;-83
2021/09/03 00:53:34;;;;;;;7.43;6.22;;;;;;;;;;5035223;28;20548;-84
2021/09/03 00:56:00;;;;;;;8.65;6.40;;;;;;;;;;5031033;28;20026;-84
2021/09/03 00:58:27;;;;;;;8.90;6.75;;;;;;;;;;5031751;28;20030;-85
2021/09/03 01:00:53;;;;;;;8.57;6.78;;;;;;;;;;5041348;28;20021;-82
2021/09/03 01:03:19;;;;;;;7.68;6.13;;;;;;;;;;5045300;28;20021;-82
2021/09/03 01:05:45;;;;;;;9.75;7.07;;;;;;;;;;5052126;28;20052;-84
2021/09/03 01:08:12;;;;;;;9.60;7.50;;;;;;;;;;5054415;28;20067;-82
2021/09/03 01:10:39;;;;;;;8.93;7.13;;;;;;;;;;5056930;28;20021;-84
2021/09/03 01:13:06;;;;;;;8.07;6.32;;;;;;;;;;5055549;28;20224;-83
2021/09/03 01:15:32;;;;;;;8.50;7.30;;;;;;;;;;5051556;28;20065;-82
2021/09/03 01:17:58;;;;;;;10.55;8.25;;;;;;;;;;5051982;28;20368;-84
2021/09/03 01:20:24;;;;;;;9.90;7.88;;;;;;;;;;5052933;28;20033;-83
2021/09/03 01:22:50;;;;;;;8.88;7.60;;;;;;;;;;5053334;28;20036;-82
2021/09/03 01:25:16;;;;;;;10.13;7.75;;;;;;;;;;5052184;28;20144;-83
2021/09/03 01:27:43;;;;;;;9.85;7.47;;;;;;;;;;5044777;28;20029;-83
2021/09/03 01:30:12;;;;;;;8.50;6.95;;;;;;;;;;5040144;28;20026;-84
2021/09/03 01:32:38;;;;;;;8.38;6.75;;;;;;;;;;5028908;28;20022;-83
2021/09/03 01:35:05;;;;;;;9.25;6.43;;;;;;;;;;5019669;28;20022;-85
2021/09/03 01:37:31;;;;;;;8.55;7.05;;;;;;;;;;5018289;28;20110;-83
2021/09/03 01:39:57;;;;;;;7.13;6.43;;;;;;;;;;5022467;28;20424;-84
2021/09/03 01:42:23;;;;;;;7.80;6.88;;;;;;;;;;5020684;28;20030;-84
2021/09/03 01:44:49;;;;;;;9.13;7.10;;;;;;;;;;5023337;28;20077;-84
2021/09/03 01:47:15;;;;;;;8.50;7.32;;;;;;;;;;5021939;28;20486;-83
2021/09/03 01:49:44;;;;;;;9.77;7.57;;;;;;;;;;5023303;28;20045;-84
2021/09/03 01:52:10;;;;;;;9.65;7.15;;;;;;;;;;5022070;28;20022;-84
2021/09/03 01:54:36;;;;;;;8.68;6.30;;;;;;;;;;5021207;28;20033;-83
2021/09/03 01:57:02;;;;;;;7.70;5.65;;;;;;;;;;5021699;28;20018;-83
2021/09/03 01:59:28;;;;;;;9.25;6.80;;;;;;;;;;5023561;28;20038;-83
2021/09/03 02:01:54;;;;;;;8.85;6.55;;;;;;;;;;5031799;28;20053;-84
2021/09/03 02:04:20;;;;;;;9.07;6.68;;;;;;;;;;5041643;28;20014;-84
2021/09/03 02:06:46;;;;;;;11.25;6.97;;;;;;;;;;5040515;28;20097;-82
2021/09/03 02:09:13;;;;;;;8.35;7.35;;;;;;;;;;5039140;28;20029;-83
2021/09/03 02:11:39;;;;;;;8.38;6.78;;;;;;;;;;5041258;28;20029;-83
2021/09/03 02:14:05;;;;;;;8.20;6.35;;;;;;;;;;5042050;28;20025;-82
2021/09/03 02:16:31;;;;;;;9.23;7.38;;;;;;;;;;5039644;28;20021;-82
2021/09/03 02:18:58;;;;;;;8.18;6.97;;;;;;;;;;5040101;28;20049;-82
2021/09/03 02:21:24;;;;;;;7.80;6.93;;;;;;;;;;5041075;28;20109;-82
2021/09/03 02:23:50;;;;;;;9.45;7.50;;;;;;;;;;5040755;28;20041;-82
2021/09/03 02:26:16;;;;;;;9.55;7.22;;;;;;;;;;5040273;28;20033;-84
2021/09/03 02:28:42;;;;;;;7.20;6.07;;;;;;;;;;5040070;28;20037;-83
2021/09/03 02:31:09;;;;;;;7.22;5.75;;;;;;;;;;5040395;28;20030;-84
2021/09/03 02:33:35;;;;;;;8.43;6.10;;;;;;;;;;5040665;28;20047;-83
2021/09/03 02:36:01;;;;;;;7.82;6.25;;;;;;;;;;5041094;28;20095;-83
2021/09/03 02:38:27;;;;;;;6.43;5.82;;;;;;;;;;5038067;28;20072;-84
2021/09/03 02:40:53;;;;;;;7.68;6.20;;;;;;;;;;5038565;28;20172;-84
2021/09/03 02:43:19;;;;;;;7.78;6.43;;;;;;;;;;5038927;28;20032;-83
2021/09/03 02:45:46;;;;;;;11.20;8.32;;;;;;;;;;5040139;28;20026;-83
2021/09/03 02:48:12;;;;;;;10.52;7.70;;;;;;;;;;5046760;28;20474;-83
2021/09/03 02:50:38;;;;;;;12.15;7.53;;;;;;;;;;5040142;28;20116;-82
2021/09/03 02:53:04;;;;;;;9.70;7.22;;;;;;;;;;5039018;28;20466;-85
2021/09/03 02:55:30;;;;;;;8.27;7.10;;;;;;;;;;5040122;28;20049;-83
2021/09/03 02:57:57;;;;;;;8.85;6.70;;;;;;;;;;5039952;28;20040;-84
2021/09/03 03:00:23;;;;;;;8.88;6.00;;;;;;;;;;5039694;28;20037;-84
2021/09/03 03:02:51;;;;;;;8.45;6.95;;;;;;;;;;5031896;28;20026;-84
2021/09/03 03:05:17;;;;;;;8.95;6.75;;;;;;;;;;5018289;28;20026;-81
2021/09/03 03:07:43;;;;;;;8.05;6.55;;;;;;;;;;5019459;28;20076;-82
2021/09/03 03:10:10;;;;;;;10.25;7.47;;;;;;;;;;5020115;28;20034;-83
2021/09/03 03:12:36;;;;;;;8.48;7.20;;;;;;;;;;5021256;28;20318;-82
2021/09/03 03:15:03;;;;;;;11.32;8.07;;;;;;;;;;5019676;28;20022;-85
2021/09/03 03:17:29;;;;;;;10.68;8.07;;;;;;;;;;5021017;28;20041;-84
2021/09/03 03:19:55;;;;;;;10.50;8.13;;;;;;;;;;5034639;28;20029;-84
2021/09/03 03:22:21;;;;;;;10.70;7.53;;;;;;;;;;5035318;28;20049;-84
2021/09/03 03:24:47;;;;;;;10.15;8.00;;;;;;;;;;5024548;28;20029;-83
2021/09/03 03:27:13;;;;;;;9.20;7.50;;;;;;;;;;5024505;28;20026;-83
2021/09/03 03:29:39;;;;;;;8.82;7.20;;;;;;;;;;5026058;28;20121;-83
2021/09/03 03:32:06;;;;;;;13.05;9.18;;;;;;;;;;5041178;28;20132;-82
2021/09/03 03:34:32;;;;;;;11.73;9.27;;;;;;;;;;5026575;28;20089;-84
2021/09/03 03:36:58;;;;;;;11.18;8.88;;;;;;;;;;5021066;28;20030;-84
2021/09/03 03:39:24;;;;;;;9.88;7.63;;;;;;;;;;5032481;28;20037;-84
2021/09/03 03:41:50;;;;;;;10.77;8.10;;;;;;;;;;5040511;28;20108;-83
2021/09/03 03:44:16;;;;;;;8.50;7.22;;;;;;;;;;5038300;28;20036;-82
2021/09/03 03:46:42;;;;;;;9.15;6.47;;;;;;;;;;5036656;28;20029;-82
2021/09/03 03:49:09;;;;;;;8.32;6.65;;;;;;;;;;5038067;28;20544;-83
2021/09/03 03:51:35;;;;;;;7.72;5.93;;;;;;;;;;5041146;28;20066;-82
2021/09/03 03:54:01;;;;;;;7.05;6.30;;;;;;;;;;5042666;28;20018;-82
2021/09/03 03:56:27;;;;;;;7.00;5.43;;;;;;;;;;5039877;28;20052;-83
2021/09/03 03:58:53;;;;;;;7.97;6.18;;;;;;;;;;5046256;28;20060;-82
2021/09/03 04:01:19;;;;;;;8.63;6.30;;;;;;;;;;5045254;28;20026;-83
2021/09/03 04:03:45;;;;;;;8.63;7.00;;;;;;;;;;5035786;28;20045;-83
2021/09/03 04:06:11;;;;;;;8.85;6.93;;;;;;;;;;5044519;28;20025;-82
2021/09/03 04:08:37;;;;;;;9.88;7.45;;;;;;;;;;5053440;28;20040;-82
2021/09/03 04:11:03;;;;;;;8.38;6.75;;;;;;;;;;5040806;28;20493;-82
2021/09/03 04:13:29;;;;;;;9.75;7.80;;;;;;;;;;5040201;28;20117;-83
2021/09/03 04:15:55;;;;;;;8.85;7.15;;;;;;;;;;5042668;28;20026;-82
2021/09/03 04:18:21;;;;;;;10.05;8.05;;;;;;;;;;5044999;28;20025;-82
2021/09/03 04:20:47;;;;;;;8.45;7.50;;;;;;;;;;5043265;28;20029;-83
2021/09/03 04:23:14;;;;;;;9.13;7.20;;;;;;;;;;5037213;28;20032;-83
2021/09/03 04:25:40;;;;;;;8.13;6.70;;;;;;;;;;5037557;28;20033;-83
2021/09/03 04:28:06;;;;;;;10.02;7.93;;;;;;;;;;5037908;28;20029;-83
2021/09/03 04:30:32;;;;;;;10.93;8.45;;;;;;;;;;5037415;28;20026;-83
2021/09/03 04:32:58;;;;;;;12.38;8.60;;;;;;;;;;5028391;28;20026;-82
2021/09/03 04:35:25;;;;;;;10.25;8.15;;;;;;;;;;5017017;28;20065;-82
2021/09/03 04:37:52;;;;;;;10.05;7.80;;;;;;;;;;5017107;28;20018;-81
2021/09/03 04:40:19;;;;;;;11.05;8.50;;;;;;;;;;5016100;28;20048;-83
2021/09/03 04:42:45;;;;;;;11.80;8.70;;;;;;;;;;5017822;28;20054;-83
2021/09/03 04:45:11;;;;;;;12.10;9.25;;;;;;;;;;5018290;28;20057;-82
2021/09/03 04:47:38;;;;;;;12.52;9.40;;;;;;;;;;5018193;28;20025;-81
2021/09/03 04:50:05;;;;;;;13.18;9.27;;;;;;;;;;5019440;28;20025;-82
2021/09/03 04:52:31;;;;;;;12.38;9.18;;;;;;;;;;5025470;28;20022;-81
2021/09/03 04:54:57;;;;;;;11.05;8.40;;;;;;;;;;5029713;28;20037;-82
2021/09/03 04:57:23;;;;;;;10.38;8.55;;;;;;;;;;5037121;28;20029;-83
2021/09/03 04:59:49;;;;;;;12.93;8.95;;;;;;;;;;5029796;28;20119;-83
2021/09/03 05:02:16;;;;;;;11.48;9.23;;;;;;;;;;5035553;28;20123;-82
2021/09/03 05:04:43;;;;;;;11.68;8.27;;;;;;;;;;5019277;28;20022;-82
2021/09/03 05:07:09;;;;;;;12.77;9.25;;;;;;;;;;5018975;28;20029;-82
2021/09/03 05:09:35;;;;;;;12.85;9.07;;;;;;;;;;5021154;28;20105;-81
2021/09/03 05:12:01;;;;;;;11.32;8.63;;;;;;;;;;5021175;28;20022;-82
2021/09/03 05:14:27;;;;;;;11.90;8.57;;;;;;;;;;5021501;28;20030;-82
2021/09/03 05:16:53;;;;;;;10.27;8.35;;;;;;;;;;5021003;28;20037;-82
2021/09/03 05:19:19;;;;;;;10.95;7.45;;;;;;;;;;5020495;28;20038;-83
2021/09/03 05:21:45;;;;;;;11.88;8.10;;;;;;;;;;5020684;28;20022;-82
2021/09/03 05:24:11;;;;;;;12.55;8.50;;;;;;;;;;5021370;28;20046;-82
2021/09/03 05:26:37;;;;;;;9.82;7.72;;;;;;;;;;5021609;28;20026;-83
2021/09/03 05:29:03;;;;;;;10.55;8.40;;;;;;;;;;5020476;28;20056;-83
2021/09/03 05:31:29;;;;;;;11.73;8.93;;;;;;;;;;5036265;28;20021;-83
2021/09/03 05:33:58;;;;;;;12.27;8.50;;;;;;;;;;5026036;28;20109;-83
2021/09/03 05:36:24;;;;;;;11.75;9.07;;;;;;;;;;5022222;28;20089;-84
2021/09/03 05:38:50;;;;;;;12.35;8.85;;;;;;;;;;5025727;28;20343;-84
2021/09/03 05:41:18;;;;;;;10.82;8.25;;;;;;;;;;5027659;28;20160;-82
2021/09/03 05:44:04;;;;;;;9.95;7.82;;;;;;;;;;5023361;28;20533;-85
2021/09/03 05:46:30;;;;;;;10.55;7.93;;;;;;;;;;5028318;28;20049;-84
2021/09/03 05:48:57;;;;;;;11.18;8.27;;;;;;;;;;5043007;28;20052;-82
2021/09/03 05:51:23;;;;;;;11.15;8.40;;;;;;;;;;5045237;28;20026;-82
2021/09/03 05:53:49;;;;;;;16.60;10.50;;;;;;;;;;5027352;28;20018;-82
2021/09/03 05:56:18;;;;;;;18.75;11.43;;;;;;;;;;5025514;28;20048;-82
2021/09/03 05:58:44;;;;;;;16.70;10.95;;;;;;;;;;5023899;28;20030;-82
2021/09/03 06:01:10;;;;;;;12.35;9.55;;;;;;;;;;5033054;28;20045;-82
2021/09/03 06:03:36;;;;;;;16.75;10.65;;;;;;;;;;5029745;28;20034;-82
2021/09/03 06:06:02;;;;;;;13.80;10.48;;;;;;;;;;5026200;28;20025;-81
2021/09/03 06:08:30;;;;;;;13.88;9.70;;;;;;;;;;5036380;28;20092;-82
2021/09/03 06:10:56;;;;;;;15.50;10.43;;;;;;;;;;5047064;28;20395;-82
2021/09/03 06:13:22;;;;;;;13.93;10.77;;;;;;;;;;5050942;28;20013;-81
2021/09/03 06:15:51;;;;;;;14.45;10.05;;;;;;;;;;5049033;28;20040;-80
2021/09/03 06:18:17;;;;;;;12.65;9.25;;;;;;;;;;5030453;28;20030;-82
2021/09/03 06:20:43;;;;;;;13.77;9.15;;;;;;;;;;5028032;28;20033;-81
2021/09/03 06:23:12;;;;;;;13.75;9.65;;;;;;;;;;5034234;28;20086;-80
2021/09/03 06:25:41;;;;;;;14.02;9.98;;;;;;;;;;5039419;28;20041;-81
2021/09/03 06:28:07;;;;;;;15.70;10.25;;;;;;;;;;5041395;28;20041;-82
2021/09/03 06:30:33;;;;;;;12.35;9.07;;;;;;;;;;5028306;28;20033;-81
2021/09/03 06:32:59;;;;;;;11.43;9.25;;;;;;;;;;5030923;28;20078;-82
2021/09/03 06:35:26;;;;;;;11.98;8.32;;;;;;;;;;5021937;28;20030;-81
2021/09/03 06:37:52;;;;;;;12.40;8.60;;;;;;;;;;5026675;28;20086;-80
2021/09/03 06:40:21;;;;;;;12.70;8.90;;;;;;;;;;5027504;28;20554;-80
2021/09/03 06:42:47;;;;;;;12.07;9.18;;;;;;;;;;5027623;28;20072;-80
2021/09/03 06:45:13;;;;;;;13.60;9.15;;;;;;;;;;5045752;28;20085;-80
2021/09/03 06:47:39;;;;;;;12.63;9.13;;;;;;;;;;5048334;28;20068;-79
2021/09/03 06:50:06;;;;;;;12.98;9.30;;;;;;;;;;5045865;28;20013;-81
2021/09/03 06:52:32;;;;;;;11.98;8.75;;;;;;;;;;5045639;28;20033;-80
2021/09/03 06:54:59;;;;;;;11.05;7.90;;;;;;;;;;5044626;28;20495;-81
2021/09/03 06:57:25;;;;;;;10.70;8.73;;;;;;;;;;5045302;28;20142;-80
2021/09/03 06:59:51;;;;;;;10.15;7.75;;;;;;;;;;5047784;28;20021;-80
2021/09/03 07:02:20;;;;;;;10.32;7.90;;;;;;;;;;5050632;28;20021;-80
2021/09/03 07:04:46;;;;;;;8.93;7.65;;;;;;;;;;5043055;28;20546;-80
2021/09/03 07:07:12;;;;;;;12.13;8.82;;;;;;;;;;5045711;28;20022;-81
2021/09/03 07:09:41;;;;;;;12.00;9.85;;;;;;;;;;5045594;28;20029;-80
2021/09/03 07:12:08;;;;;;;13.95;9.55;;;;;;;;;;5042060;28;20022;-80
2021/09/03 07:14:34;;;;;;;12.75;9.85;;;;;;;;;;5044111;28;20025;-81
2021/09/03 07:17:00;;;;;;;13.50;9.00;;;;;;;;;;5046298;28;20386;-80
2021/09/03 07:19:26;;;;;;;9.93;7.63;;;;;;;;;;5046182;28;20104;-81
2021/09/03 07:21:52;;;;;;;11.73;9.43;;;;;;;;;;5043475;28;20209;-79
2021/09/03 07:24:18;;;;;;;9.23;7.55;;;;;;;;;;5045222;28;20431;-80
2021/09/03 07:26:47;;;;;;;10.38;7.72;;;;;;;;;;5046580;28;20041;-81
2021/09/03 07:29:13;;;;;;;8.73;6.63;;;;;;;;;;5047208;28;20087;-81
2021/09/03 07:31:40;;;;;;;12.00;8.32;;;;;;;;;;5043386;28;20026;-80
2021/09/03 07:34:06;;;;;;;11.82;7.22;;;;;;;;;;5027642;28;20018;-79
2021/09/03 07:36:32;;;;;;;8.20;7.10;;;;;;;;;;5024151;28;20025;-80
2021/09/03 07:38:58;;;;;;;12.35;7.32;;;;;;;;;;5027605;28;20057;-82
2021/09/03 07:41:24;;;;;;;11.30;7.65;;;;;;;;;;5024695;28;20025;-82
2021/09/03 07:43:50;;;;;;;13.75;8.65;;;;;;;;;;5028095;28;20072;-83
2021/09/03 07:46:17;;;;;;;12.93;8.57;;;;;;;;;;5039298;28;20092;-83
2021/09/03 07:48:43;;;;;;;11.32;8.00;;;;;;;;;;5040996;28;20104;-81
2021/09/03 07:51:09;;;;;;;11.27;7.43;;;;;;;;;;5043214;28;20025;-86
2021/09/03 07:53:35;;;;;;;8.88;6.75;;;;;;;;;;5038115;28;20018;-83
2021/09/03 07:56:03;;;;;;;12.23;7.50;;;;;;;;;;5037084;28;20041;-82
2021/09/03 07:58:29;;;;;;;9.80;7.70;;;;;;;;;;5038627;28;20060;-83
2021/09/03 08:00:55;;;;;;;12.05;8.45;;;;;;;;;;5042358;28;20124;-81
2021/09/03 08:03:21;;;;;;;9.82;6.85;;;;;;;;;;5034591;28;20041;-82
2021/09/03 08:05:47;;;;;;;12.40;8.43;;;;;;;;;;5033070;28;20068;-81
2021/09/03 08:08:13;;;;;;;8.80;7.53;;;;;;;;;;5040537;28;20116;-82
2021/09/03 08:10:40;;;;;;;10.93;7.78;;;;;;;;;;5038330;28;20025;-81
2021/09/03 08:13:08;;;;;;;9.07;6.82;;;;;;;;;;5039337;28;20036;-82
2021/09/03 08:15:35;;;;;;;8.75;6.82;;;;;;;;;;5040946;28;20102;-82
2021/09/03 08:18:01;;;;;;;8.75;7.30;;;;;;;;;;5042162;28;20486;-82
2021/09/03 08:20:27;;;;;;;10.63;7.20;;;;;;;;;;5038939;28;20013;-82
2021/09/03 08:22:53;;;;;;;7.90;6.45;;;;;;;;;;5040310;28;20433;-82
2021/09/03 08:25:20;;;;;;;10.73;8.48;;;;;;;;;;5044155;28;20124;-82
2021/09/03 08:27:47;;;;;;;9.95;6.90;;;;;;;;;;5044432;28;20030;-82
2021/09/03 08:30:13;;;;;;;8.07;6.30;;;;;;;;;;5043945;28;20029;-81
2021/09/03 08:32:39;;;;;;;11.27;7.40;;;;;;;;;;5046314;28;20022;-82
2021/09/03 08:35:05;;;;;;;10.88;7.57;;;;;;;;;;5045582;28;20029;-83
2021/09/03 08:37:31;;;;;;;14.18;7.53;;;;;;;;;;5043678;28;20029;-83
2021/09/03 08:39:59;;;;;;;10.82;7.47;;;;;;;;;;5043273;28;20029;-84
2021/09/03 08:42:25;;;;;;;10.55;7.18;;;;;;;;;;5044435;28;20028;-82
2021/09/03 08:44:55;;;;;;;7.57;6.13;;;;;;;;;;5042445;28;20394;-82
2021/09/03 08:47:22;;;;;;;10.88;7.53;;;;;;;;;;5042976;28;20113;-83
2021/09/03 08:49:50;;;;;;;10.07;6.68;;;;;;;;;;5041675;28;20025;-83
2021/09/03 08:52:17;;;;;;;8.57;6.68;;;;;;;;;;5042651;28;20018;-82
2021/09/03 08:54:44;;;;;;;8.50;6.68;;;;;;;;;;5042105;28;20100;-83
2021/09/03 08:57:12;;;;;;;8.25;6.43;;;;;;;;;;5042378;28;20031;-82
2021/09/03 08:59:38;;;;;;;7.03;5.80;;;;;;;;;;5043728;28;20049;-83
2021/09/03 09:02:14;;;;;;;10.05;7.35;;;;;;;;;;5041759;28;20034;-81
2021/09/03 09:04:42;;;;;;;9.68;6.75;;;;;;;;;;5040882;28;20013;-81
2021/09/03 09:07:08;;;;;;;9.68;6.40;;;;;;;;;;5041520;28;20477;-82
2021/09/03 09:09:39;;;;;;;8.13;6.45;;;;;;;;;;5051901;28;20029;-82
2021/09/03 09:12:06;;;;;;;5.82;5.22;;;;;;;;;;5050665;28;20042;-82
2021/09/03 09:14:51;;;;;;;7.25;5.90;;;;;;;;;;5039375;28;20097;-82
2021/09/03 09:17:29;;;;;;;10.07;6.47;;;;;;;;;;5023643;28;20038;-82
2021/09/03 09:19:56;;;;;;;7.60;6.25;;;;;;;;;;5024082;28;20096;-81
2021/09/03 09:22:22;;;;;;;9.55;6.78;;;;;;;;;;5021120;28;20037;-83
2021/09/03 09:24:48;;;;;;;8.18;6.65;;;;;;;;;;5021817;28;20038;-82
2021/09/03 09:27:26;;;;;;;7.85;7.00;;;;;;;;;;5039921;28;20029;-81
2021/09/03 09:29:52;;;;;;;8.63;6.53;;;;;;;;;;5049523;28;20030;-81
2021/09/03 09:32:19;;;;;;;8.50;6.05;;;;;;;;;;5042497;28;20076;-82
2021/09/03 09:34:45;;;;;;;8.07;5.97;;;;;;;;;;5021607;28;20065;-83
2021/09/03 09:37:14;;;;;;;7.68;6.50;;;;;;;;;;5020013;28;20026;-82
2021/09/03 09:39:51;;;;;;;7.97;6.70;;;;;;;;;;5021224;28;20129;-82
2021/09/03 09:42:27;;;;;;;9.23;7.50;;;;;;;;;;5003769;28;20116;-81
2021/09/03 09:45:06;;;;;;;7.82;6.38;;;;;;;;;;5003347;28;20022;-82
2021/09/03 09:47:33;;;;;;;8.00;6.20;;;;;;;;;;5034979;28;20458;-81
2021/09/03 09:49:59;;;;;;;6.35;5.68;;;;;;;;;;5038781;28;20083;-83
2021/09/03 09:52:37;;;;;;;7.32;5.32;;;;;;;;;;5042731;28;20009;-83
2021/09/03 09:55:04;;;;;;;6.93;5.90;;;;;;;;;;5052202;28;20022;-80
2021/09/03 09:57:33;;;;;;;5.85;5.25;;;;;;;;;;5039998;28;20022;-81
2021/09/03 10:00:00;;;;;;;6.90;6.07;;;;;;;;;;5023640;28;20036;-84
2021/09/03 10:02:26;;;;;;;8.23;6.40;;;;;;;;;;5036536;28;20028;-81
2021/09/03 10:04:52;;;;;;;6.03;5.22;;;;;;;;;;5020631;28;20101;-82
2021/09/03 10:07:19;;;;;;;5.40;4.90;;;;;;;;;;5021470;28;20057;-84
2021/09/03 10:09:48;;;;;;;6.07;5.47;;;;;;;;;;5020313;28;20372;-82
2021/09/03 10:12:17;;;;;;;8.15;5.65;;;;;;;;;;5002848;28;20437;-82
2021/09/03 10:14:43;;;;;;;5.75;5.13;;;;;;;;;;5019433;28;20469;-82
2021/09/03 10:17:11;;;;;;;7.45;5.70;;;;;;;;;;5001685;28;20029;-80
2021/09/03 10:19:39;;;;;;;8.25;6.38;;;;;;;;;;5018401;28;20033;-81
2021/09/03 10:22:05;;;;;;;6.10;5.43;;;;;;;;;;5017763;28;20026;-82
2021/09/03 10:24:31;;;;;;;8.82;5.88;;;;;;;;;;5017453;28;20087;-83
2021/09/03 10:26:58;;;;;;;7.47;6.47;;;;;;;;;;5019066;28;20113;-82
2021/09/03 10:29:25;;;;;;;7.25;5.45;;;;;;;;;;5018965;28;20044;-81
2021/09/03 10:31:57;;;;;;;6.85;5.60;;;;;;;;;;5019054;28;20021;-82
2021/09/03 10:34:47;;;;;;;6.93;5.78;;;;;;;;;;5021155;28;20076;-81
2021/09/03 10:37:13;;;;;;;7.43;5.63;;;;;;;;;;5025932;28;20006;-80
2021/09/03 10:39:43;;;;;;;8.95;5.35;;;;;;;;;;5037153;28;20079;-82
2021/09/03 10:42:09;;;;;;;5.80;4.93;;;;;;;;;;5037297;28;20040;-81
2021/09/03 10:44:53;;;;;;;6.25;5.55;;;;;;;;;;5036103;28;20030;-80
2021/09/03 10:47:32;;;;;;;5.60;4.75;;;;;;;;;;5036833;28;20041;-83
2021/09/03 10:49:58;;;;;;;6.07;5.47;;;;;;;;;;5037543;28;20037;-81
2021/09/03 10:52:24;;;;;;;10.65;5.25;;;;;;;;;;5036001;28;20140;-81
2021/09/03 10:54:51;;;;;;;8.38;5.30;;;;;;;;;;5037869;28;20025;-81
2021/09/03 10:57:17;;;;;;;6.88;5.57;;;;;;;;;;5036643;28;20109;-80
2021/09/03 11:00:09;;;;;;;7.43;5.80;;;;;;;;;;5035997;28;20033;-80
2021/09/03 11:02:35;;;;;;;6.55;5.38;;;;;;;;;;5028945;28;20087;-82
2021/09/03 11:05:23;;;;;;;8.30;6.10;;;;;;;;;;5038377;28;20055;-82
2021/09/03 11:07:49;;;;;;;6.20;5.32;;;;;;;;;;5040703;28;20122;-81
2021/09/03 11:10:19;;;;;;;9.48;6.45;;;;;;;;;;5038721;28;20053;-82
2021/09/03 11:12:51;;;;;;;6.80;5.70;;;;;;;;;;5039252;28;20080;-81
2021/09/03 11:15:18;;;;;;;6.97;5.97;;;;;;;;;;5041629;28;20026;-82
2021/09/03 11:17:44;;;;;;;6.95;6.03;;;;;;;;;;5040369;28;20089;-84
2021/09/03 11:20:11;;;;;;;7.10;5.82;;;;;;;;;;5039047;28;20029;-83
2021/09/03 11:22:37;;;;;;;7.85;5.32;;;;;;;;;;5041293;28;20083;-83
2021/09/03 11:25:04;;;;;;;7.30;5.90;;;;;;;;;;5039330;28;20116;-81
2021/09/03 11:27:31;;;;;;;6.75;5.28;;;;;;;;;;5040421;28;20025;-83
2021/09/03 11:30:00;;;;;;;8.77;6.20;;;;;;;;;;5038560;28;20080;-82
2021/09/03 11:32:38;;;;;;;7.55;5.60;;;;;;;;;;5029014;28;20057;-83
2021/09/03 11:35:05;;;;;;;6.25;5.50;;;;;;;;;;5039159;28;20083;-82
2021/09/03 11:37:45;;;;;;;6.63;5.05;;;;;;;;;;5038409;28;20030;-79
2021/09/03 11:40:17;;;;;;;7.53;6.20;;;;;;;;;;5040964;28;20039;-82
2021/09/03 11:42:47;;;;;;;6.57;5.82;;;;;;;;;;5039536;28;20045;-83
2021/09/03 11:45:17;;;;;;;5.57;5.07;;;;;;;;;;5038269;28;20078;-83
2021/09/03 11:47:54;;;;;;;7.55;6.18;;;;;;;;;;5036932;28;20022;-82
2021/09/03 11:50:26;;;;;;;7.97;5.60;;;;;;;;;;5027667;28;20034;-80
2021/09/03 11:52:53;;;;;;;6.13;5.50;;;;;;;;;;5027885;28;20025;-82
2021/09/03 11:55:19;;;;;;;6.85;6.15;;;;;;;;;;5022803;28;20432;-80
2021/09/03 11:57:51;;;;;;;8.15;6.40;;;;;;;;;;5025989;28;20495;-81
2021/09/03 12:00:21;;;;;;;7.60;5.88;;;;;;;;;;5028832;28;20164;-81
2021/09/03 12:02:48;;;;;;;6.15;5.55;;;;;;;;;;5032374;28;20038;-82
2021/09/03 12:05:14;;;;;;;8.52;5.47;;;;;;;;;;5032361;28;20026;-80
2021/09/03 12:07:40;;;;;;;6.60;5.90;;;;;;;;;;5037190;28;20088;-80
2021/09/03 12:10:06;;;;;;;6.85;5.40;;;;;;;;;;5020929;28;20022;-82
2021/09/03 12:12:34;;;;;;;6.95;5.13;;;;;;;;;;5022119;28;20026;-83
2021/09/03 12:15:01;;;;;;;6.60;5.70;;;;;;;;;;5039058;28;20332;-83
2021/09/03 12:17:40;;;;;;;6.80;5.28;;;;;;;;;;5042048;28;20079;-82
2021/09/03 12:20:14;;;;;;;6.05;5.45;;;;;;;;;;5038971;28;20075;-83
2021/09/03 12:22:54;;;;;;;7.38;5.55;;;;;;;;;;5039469;28;20021;-80
2021/09/03 12:25:30;;;;;;;6.47;5.72;;;;;;;;;;5038785;28;20451;-82
2021/09/03 12:28:06;;;;;;;5.75;5.15;;;;;;;;;;5039253;28;20041;-81
2021/09/03 12:30:32;;;;;;;5.82;5.20;;;;;;;;;;5038494;28;20083;-81
2021/09/03 12:33:18;;;;;;;6.95;6.25;;;;;;;;;;5037822;28;20040;-81
2021/09/03 12:35:44;;;;;;;6.25;5.65;;;;;;;;;;5029423;28;20359;-82
2021/09/03 12:38:10;;;;;;;6.97;5.55;;;;;;;;;;5041314;28;20083;-82
2021/09/03 12:40:36;;;;;;;6.05;5.10;;;;;;;;;;5038593;28;20029;-82
2021/09/03 12:43:02;;;;;;;6.18;5.25;;;;;;;;;;5038563;28;20061;-82
2021/09/03 12:45:44;;;;;;;6.57;5.78;;;;;;;;;;5039970;28;20041;-82
2021/09/03 12:48:10;;;;;;;6.70;5.28;;;;;;;;;;5039880;28;20092;-81
2021/09/03 12:50:36;;;;;;;7.28;5.57;;;;;;;;;;5054116;28;20043;-82
2021/09/03 12:53:03;;;;;;;8.60;5.20;;;;;;;;;;5045273;28;20018;-83
2021/09/03 12:55:29;;;;;;;7.07;5.40;;;;;;;;;;5039128;28;20037;-81
2021/09/03 12:57:55;;;;;;;8.32;5.45;;;;;;;;;;5038851;28;20018;-82
2021/09/03 13:00:21;;;;;;;7.05;5.70;;;;;;;;;;5037962;28;20036;-80
2021/09/03 13:02:47;;;;;;;6.93;4.90;;;;;;;;;;5036398;28;20039;-81
2021/09/03 13:05:13;;;;;;;7.45;5.18;;;;;;;;;;5038727;28;20482;-82
2021/09/03 13:07:39;;;;;;;5.28;4.60;;;;;;;;;;5039596;28;20025;-83
2021/09/03 13:10:06;;;;;;;5.65;4.78;;;;;;;;;;5038837;28;20041;-82
2021/09/03 13:12:32;;;;;;;6.13;5.13;;;;;;;;;;5037608;28;20030;-82
2021/09/03 13:14:58;;;;;;;6.22;5.15;;;;;;;;;;5039285;28;20063;-82
2021/09/03 13:17:24;;;;;;;5.93;4.78;;;;;;;;;;5038296;28;20076;-81
2021/09/03 13:19:50;;;;;;;6.85;5.53;;;;;;;;;;5040995;28;20037;-83
2021/09/03 13:22:16;;;;;;;6.72;5.40;;;;;;;;;;5038063;28;20405;-82
2021/09/03 13:24:42;;;;;;;8.60;5.88;;;;;;;;;;5039123;28;20092;-81
2021/09/03 13:27:09;;;;;;;6.43;5.30;;;;;;;;;;5041459;28;20036;-82
2021/09/03 13:29:35;;;;;;;9.07;5.65;;;;;;;;;;5042851;28;20022;-83
2021/09/03 13:32:01;;;;;;;7.07;5.03;;;;;;;;;;5037311;28;20022;-82
2021/09/03 13:34:29;;;;;;;6.88;5.30;;;;;;;;;;5050174;28;20033;-83
2021/09/03 13:36:55;;;;;;;5.63;4.93;;;;;;;;;;5039253;28;20040;-82
2021/09/03 13:39:21;;;;;;;7.88;5.57;;;;;;;;;;5038037;28;20029;-81
2021/09/03 13:41:47;;;;;;;5.40;4.90;;;;;;;;;;5040864;28;20108;-82
2021/09/03 13:44:13;;;;;;;5.95;4.95;;;;;;;;;;5042950;28;20101;-82
2021/09/03 13:46:39;;;;;;;5.82;5.22;;;;;;;;;;5039193;28;20078;-82
2021/09/03 13:49:07;;;;;;;5.22;4.55;;;;;;;;;;5036673;28;20374;-80
2021/09/03 13:51:33;;;;;;;6.60;5.22;;;;;;;;;;5040943;28;20017;-81
2021/09/03 13:53:59;;;;;;;7.00;5.70;;;;;;;;;;5040487;28;20445;-81
2021/09/03 13:56:26;;;;;;;5.20;4.70;;;;;;;;;;5041713;28;20081;-83
2021/09/03 13:58:52;;;;;;;5.22;4.72;;;;;;;;;;5037928;28;20029;-84
2021/09/03 14:01:18;;;;;;;6.13;5.53;;;;;;;;;;5039682;28;20025;-81
2021/09/03 14:03:44;;;;;;;5.93;5.32;;;;;;;;;;5036670;28;20063;-82
2021/09/03 14:06:11;;;;;;;5.30;4.80;;;;;;;;;;5041909;28;20021;-83
2021/09/03 14:08:42;;;;;;;8.20;5.38;;;;;;;;;;5042413;28;20025;-84
2021/09/03 14:11:08;;;;;;;5.05;4.53;;;;;;;;;;5041284;28;20025;-81
2021/09/03 14:13:34;;;;;;;6.30;5.20;;;;;;;;;;5042377;28;20097;-83
2021/09/03 14:16:01;;;;;;;5.97;4.65;;;;;;;;;;5043737;28;20025;-80
2021/09/03 14:18:27;;;;;;;5.82;4.90;;;;;;;;;;5042211;28;20037;-83
2021/09/03 14:20:53;;;;;;;6.25;5.22;;;;;;;;;;5042078;28;20037;-82
2021/09/03 14:23:19;;;;;;;5.50;4.97;;;;;;;;;;5037495;28;20112;-82
2021/09/03 14:25:45;;;;;;;5.22;4.72;;;;;;;;;;5035516;28;20036;-82
2021/09/03 14:28:11;;;;;;;5.88;4.95;;;;;;;;;;5039862;28;20088;-80
2021/09/03 14:30:37;;;;;;;8.02;5.50;;;;;;;;;;5040215;28;20091;-83
2021/09/03 14:33:03;;;;;;;5.22;4.72;;;;;;;;;;5033326;28;20021;-84
2021/09/03 14:35:30;;;;;;;8.00;5.93;;;;;;;;;;5082921;22;20064;-83
2021/09/03 14:37:56;;;;;;;5.90;5.20;;;;;;;;;;5036810;28;20034;-83
2021/09/03 14:40:22;;;;;;;6.88;5.25;;;;;;;;;;5044618;28;20036;-84